Time;durP1;ratioP1;P1;durP2;ratioP2;P2;SDS_P1;SDS_P2;PMS_P1;PMS_P2;Temp;Humidity;BMP_temperature;BMP_pressure;BME280_temperature;BME280_humidity;BME280_pressure;Samples;Min_cycle;Max_cycle;Signal;HPM_P1;HPM_P2
2021/01/22 00:02:00;;;;;;;2.50;1.70;;;;;;;;;;5065779;28;20194;-70
2021/01/22 00:04:26;;;;;;;4.43;1.70;;;;;;;;;;5074632;28;20188;-71
2021/01/22 00:06:52;;;;;;;5.10;1.83;;;;;;;;;;5067596;28;20295;-70
2021/01/22 00:09:18;;;;;;;4.13;1.70;;;;;;;;;;5075437;28;20188;-70
2021/01/22 00:11:43;;;;;;;6.07;1.70;;;;;;;;;;5066507;28;20673;-70
2021/01/22 00:14:09;;;;;;;5.57;1.37;;;;;;;;;;5074997;28;20199;-70
2021/01/22 00:16:34;;;;;;;10.17;1.40;;;;;;;;;;5067211;28;20711;-70
2021/01/22 00:18:59;;;;;;;6.60;1.53;;;;;;;;;;5074952;28;20191;-70
2021/01/22 00:21:25;;;;;;;5.70;1.57;;;;;;;;;;5066429;28;20630;-69
2021/01/22 00:23:50;;;;;;;2.27;1.30;;;;;;;;;;5073734;28;20600;-70
2021/01/22 00:26:15;;;;;;;3.93;1.30;;;;;;;;;;5074031;28;20545;-70
2021/01/22 00:28:41;;;;;;;3.67;1.50;;;;;;;;;;5064058;28;20682;-70
2021/01/22 00:31:06;;;;;;;2.87;1.30;;;;;;;;;;5076623;28;20218;-70
2021/01/22 00:33:31;;;;;;;5.73;1.50;;;;;;;;;;5063430;28;20195;-71
2021/01/22 00:35:57;;;;;;;5.87;1.67;;;;;;;;;;5076409;28;20232;-72
2021/01/22 00:38:22;;;;;;;4.00;1.10;;;;;;;;;;5064026;28;20351;-72
2021/01/22 00:40:47;;;;;;;2.13;1.60;;;;;;;;;;5077854;28;20681;-73
2021/01/22 00:43:13;;;;;;;1.40;1.30;;;;;;;;;;5068274;28;20255;-71
2021/01/22 00:45:38;;;;;;;1.50;1.40;;;;;;;;;;5078333;28;20208;-71
2021/01/22 00:48:04;;;;;;;1.60;1.50;;;;;;;;;;5067940;28;21556;-72
2021/01/22 00:50:29;;;;;;;1.90;1.23;;;;;;;;;;5075176;28;20933;-73
2021/01/22 00:52:54;;;;;;;1.93;1.50;;;;;;;;;;5075008;28;20199;-71
2021/01/22 00:55:20;;;;;;;1.97;1.57;;;;;;;;;;5072842;28;20592;-72
2021/01/22 00:57:45;;;;;;;1.67;1.50;;;;;;;;;;5080874;28;20271;-72
2021/01/22 01:00:11;;;;;;;1.80;1.60;;;;;;;;;;5076099;28;21671;-72
2021/01/22 01:02:37;;;;;;;2.30;1.60;;;;;;;;;;5078775;28;20179;-73
2021/01/22 01:05:04;;;;;;;2.03;1.40;;;;;;;;;;5069881;28;20558;-75
2021/01/22 01:07:29;;;;;;;2.70;1.83;;;;;;;;;;5078761;28;20880;-73
2021/01/22 01:09:55;;;;;;;3.40;1.80;;;;;;;;;;5062620;28;20303;-72
2021/01/22 01:12:20;;;;;;;3.63;2.03;;;;;;;;;;5079781;28;20220;-71
2021/01/22 01:14:45;;;;;;;2.93;2.00;;;;;;;;;;5074473;28;20579;-72
2021/01/22 01:17:11;;;;;;;2.53;1.80;;;;;;;;;;5080451;28;20169;-73
2021/01/22 01:19:36;;;;;;;3.37;1.93;;;;;;;;;;5060692;28;20571;-74
2021/01/22 01:22:01;;;;;;;5.23;1.90;;;;;;;;;;5083347;28;20180;-72
2021/01/22 01:24:27;;;;;;;2.13;1.37;;;;;;;;;;5069046;28;20184;-70
2021/01/22 01:26:52;;;;;;;2.63;1.50;;;;;;;;;;5071679;28;20202;-73
2021/01/22 01:29:18;;;;;;;2.03;1.43;;;;;;;;;;5084229;28;20257;-73
2021/01/22 01:31:43;;;;;;;1.47;1.00;;;;;;;;;;5071972;28;20667;-73
2021/01/22 01:34:08;;;;;;;2.03;0.90;;;;;;;;;;5072532;28;20531;-72
2021/01/22 01:36:34;;;;;;;1.13;0.87;;;;;;;;;;5074854;28;20557;-71
2021/01/22 01:39:00;;;;;;;2.37;1.37;;;;;;;;;;5067652;28;20233;-72
2021/01/22 01:41:25;;;;;;;0.93;0.50;;;;;;;;;;5057300;28;20275;-71
2021/01/22 01:43:50;;;;;;;1.00;0.50;;;;;;;;;;5071595;28;20184;-72
2021/01/22 01:46:16;;;;;;;0.93;0.50;;;;;;;;;;5073132;28;20199;-72
2021/01/22 01:48:41;;;;;;;0.90;0.50;;;;;;;;;;5087751;28;20183;-71
2021/01/22 01:51:07;;;;;;;0.77;0.50;;;;;;;;;;5075203;28;21262;-73
2021/01/22 01:53:32;;;;;;;1.97;0.50;;;;;;;;;;5058763;28;20197;-72
2021/01/22 01:55:57;;;;;;;0.30;0.30;;;;;;;;;;5065881;28;20661;-72
2021/01/22 01:58:25;;;;;;;2.60;0.60;;;;;;;;;;5075683;28;20215;-72
2021/01/22 02:00:50;;;;;;;0.97;0.47;;;;;;;;;;5064963;28;20176;-72
2021/01/22 02:03:16;;;;;;;0.70;0.40;;;;;;;;;;5072946;28;20192;-72
2021/01/22 02:05:42;;;;;;;1.03;0.60;;;;;;;;;;5063769;28;20286;-72
2021/01/22 02:08:07;;;;;;;1.70;0.53;;;;;;;;;;5081801;28;20193;-72
2021/01/22 02:10:33;;;;;;;1.47;0.70;;;;;;;;;;5079360;28;20243;-72
2021/01/22 02:13:00;;;;;;;2.77;0.93;;;;;;;;;;5069223;28;20223;-70
2021/01/22 02:15:26;;;;;;;0.80;0.80;;;;;;;;;;5078151;28;20192;-72
2021/01/22 02:17:53;;;;;;;1.10;1.00;;;;;;;;;;5057935;28;20619;-71
2021/01/22 02:20:29;;;;;;;1.73;1.20;;;;;;;;;;5064907;28;20572;-70
2021/01/22 02:22:55;;;;;;;1.40;1.10;;;;;;;;;;5058966;28;20196;-71
2021/01/22 02:25:29;;;;;;;3.50;1.23;;;;;;;;;;5076495;28;20210;-70
2021/01/22 02:27:55;;;;;;;2.87;1.40;;;;;;;;;;5080507;28;20615;-70
2021/01/22 02:30:21;;;;;;;1.70;1.40;;;;;;;;;;5070883;28;20223;-70
2021/01/22 02:32:48;;;;;;;1.93;1.37;;;;;;;;;;5078128;28;20196;-70
2021/01/22 02:35:17;;;;;;;4.93;1.43;;;;;;;;;;5070868;28;20196;-70
2021/01/22 02:37:46;;;;;;;1.30;1.20;;;;;;;;;;5067269;28;20557;-70
2021/01/22 02:40:13;;;;;;;2.23;1.80;;;;;;;;;;5055477;28;20298;-70
2021/01/22 02:42:41;;;;;;;1.87;1.50;;;;;;;;;;5080781;28;20188;-70
2021/01/22 02:45:09;;;;;;;1.70;1.60;;;;;;;;;;5061015;28;20536;-70
2021/01/22 02:47:35;;;;;;;4.70;2.30;;;;;;;;;;5082130;28;20188;-70
2021/01/22 02:50:00;;;;;;;3.27;2.60;;;;;;;;;;5077419;28;20623;-70
2021/01/22 02:52:26;;;;;;;4.07;2.33;;;;;;;;;;5065881;28;20237;-70
2021/01/22 02:54:52;;;;;;;5.10;2.57;;;;;;;;;;5067773;28;20180;-70
2021/01/22 02:57:45;;;;;;;4.00;2.63;;;;;;;;;;5081502;28;20609;-70
2021/01/22 03:00:15;;;;;;;4.23;2.90;;;;;;;;;;5070612;28;20267;-70
2021/01/22 03:03:22;;;;;;;7.03;3.13;;;;;;;;;;5075027;28;20180;-70
2021/01/22 03:05:49;;;;;;;5.07;2.73;;;;;;;;;;5005955;28;20218;-70
2021/01/22 03:08:18;;;;;;;3.87;3.33;;;;;;;;;;5014359;28;20308;-70
2021/01/22 03:10:46;;;;;;;6.47;3.30;;;;;;;;;;5041025;28;20250;-70
2021/01/22 03:13:13;;;;;;;4.33;3.40;;;;;;;;;;5064679;28;20192;-70
2021/01/22 03:15:39;;;;;;;4.37;3.97;;;;;;;;;;5077574;28;20243;-70
2021/01/22 03:18:18;;;;;;;4.93;3.87;;;;;;;;;;5067877;28;20298;-70
2021/01/22 03:20:48;;;;;;;5.50;4.47;;;;;;;;;;5080797;28;20184;-70
2021/01/22 03:23:15;;;;;;;5.70;4.50;;;;;;;;;;5048368;28;20180;-70
2021/01/22 03:25:41;;;;;;;7.20;4.90;;;;;;;;;;5078012;28;20276;-70
2021/01/22 03:28:07;;;;;;;5.50;4.40;;;;;;;;;;5051203;28;20192;-70
2021/01/22 03:30:33;;;;;;;5.23;4.53;;;;;;;;;;5077632;28;20973;-70
2021/01/22 03:32:59;;;;;;;6.40;4.50;;;;;;;;;;5067386;28;20259;-70
2021/01/22 03:35:25;;;;;;;6.23;4.37;;;;;;;;;;5082984;28;20271;-70
2021/01/22 03:37:50;;;;;;;5.73;4.50;;;;;;;;;;5067571;28;20223;-70
2021/01/22 03:40:16;;;;;;;6.47;5.10;;;;;;;;;;5070343;28;20223;-70
2021/01/22 03:42:44;;;;;;;5.63;4.53;;;;;;;;;;5069458;28;20188;-70
2021/01/22 03:45:10;;;;;;;6.27;4.73;;;;;;;;;;5069096;28;20200;-70
2021/01/22 03:47:35;;;;;;;7.83;5.20;;;;;;;;;;5070068;28;20184;-70
2021/01/22 03:50:01;;;;;;;7.63;5.00;;;;;;;;;;5083964;28;20241;-70
2021/01/22 03:52:26;;;;;;;9.43;5.07;;;;;;;;;;5063136;28;20171;-70
2021/01/22 03:54:54;;;;;;;7.63;5.40;;;;;;;;;;5070885;28;20606;-70
2021/01/22 03:57:20;;;;;;;9.47;5.87;;;;;;;;;;5062800;28;20187;-70
2021/01/22 03:59:45;;;;;;;10.07;6.33;;;;;;;;;;5068184;28;20221;-70
2021/01/22 04:02:12;;;;;;;9.20;6.00;;;;;;;;;;5077875;28;20602;-70
2021/01/22 04:04:38;;;;;;;9.37;6.03;;;;;;;;;;5066340;28;20601;-70
2021/01/22 04:07:03;;;;;;;8.47;5.87;;;;;;;;;;5065703;28;20740;-71
2021/01/22 04:09:30;;;;;;;8.13;5.87;;;;;;;;;;5072273;28;20196;-71
2021/01/22 04:11:58;;;;;;;9.73;5.80;;;;;;;;;;5076291;28;20207;-71
2021/01/22 04:14:24;;;;;;;8.33;6.30;;;;;;;;;;5073405;28;20846;-71
2021/01/22 04:16:54;;;;;;;10.03;6.30;;;;;;;;;;5064207;28;20203;-71
2021/01/22 04:19:19;;;;;;;9.57;6.13;;;;;;;;;;5070442;28;20223;-71
2021/01/22 04:21:45;;;;;;;10.13;6.90;;;;;;;;;;5075219;28;20709;-71
2021/01/22 04:24:10;;;;;;;13.37;7.73;;;;;;;;;;5059190;28;20568;-71
2021/01/22 04:26:35;;;;;;;11.53;7.63;;;;;;;;;;5073483;28;20188;-71
2021/01/22 04:29:01;;;;;;;12.40;7.37;;;;;;;;;;5076929;28;20203;-71
2021/01/22 04:31:26;;;;;;;16.07;7.90;;;;;;;;;;5071452;28;20207;-71
2021/01/22 04:33:51;;;;;;;13.27;7.97;;;;;;;;;;5079375;28;20295;-71
2021/01/22 04:36:17;;;;;;;14.97;8.77;;;;;;;;;;5073021;28;20187;-71
2021/01/22 04:38:42;;;;;;;14.97;9.20;;;;;;;;;;5078787;28;20733;-70
2021/01/22 04:41:07;;;;;;;16.33;10.13;;;;;;;;;;5072567;28;20319;-70
2021/01/22 04:43:33;;;;;;;13.67;8.43;;;;;;;;;;5081456;28;20283;-71
2021/01/22 04:46:01;;;;;;;15.70;9.80;;;;;;;;;;5070856;28;20966;-71
2021/01/22 04:48:29;;;;;;;14.67;9.20;;;;;;;;;;5088902;28;20271;-71
2021/01/22 04:50:58;;;;;;;15.50;9.73;;;;;;;;;;5081181;28;20300;-70
2021/01/22 04:53:27;;;;;;;17.27;10.67;;;;;;;;;;5077901;28;20286;-71
2021/01/22 04:55:54;;;;;;;15.07;8.67;;;;;;;;;;5085978;28;20191;-71
2021/01/22 04:58:21;;;;;;;18.17;11.03;;;;;;;;;;5069451;28;20184;-70
2021/01/22 05:00:47;;;;;;;15.87;10.10;;;;;;;;;;5080798;28;20184;-71
2021/01/22 05:03:13;;;;;;;19.50;10.13;;;;;;;;;;5073933;28;20195;-71
2021/01/22 05:05:38;;;;;;;17.80;11.07;;;;;;;;;;5082597;28;20268;-71
2021/01/22 05:08:04;;;;;;;19.70;11.93;;;;;;;;;;5070590;28;20199;-71
2021/01/22 05:10:29;;;;;;;20.23;12.90;;;;;;;;;;5077232;28;20200;-70
2021/01/22 05:12:55;;;;;;;22.90;13.87;;;;;;;;;;5071298;28;20220;-70
2021/01/22 05:15:24;;;;;;;18.93;12.77;;;;;;;;;;5080666;28;20215;-71
2021/01/22 05:18:05;;;;;;;23.67;13.97;;;;;;;;;;5072821;28;20277;-70
2021/01/22 05:20:35;;;;;;;19.80;12.80;;;;;;;;;;5081576;28;20658;-70
2021/01/22 05:23:03;;;;;;;21.13;12.77;;;;;;;;;;5070997;28;20663;-70
2021/01/22 05:25:28;;;;;;;19.87;12.67;;;;;;;;;;5078847;28;20987;-70
2021/01/22 05:27:55;;;;;;;20.17;13.13;;;;;;;;;;5073565;28;20196;-70
2021/01/22 05:30:23;;;;;;;17.07;12.40;;;;;;;;;;5077917;28;20279;-70
2021/01/22 05:32:48;;;;;;;21.03;12.83;;;;;;;;;;5061683;28;20188;-70
2021/01/22 05:35:27;;;;;;;26.57;13.03;;;;;;;;;;5074456;28;20192;-70
2021/01/22 05:37:53;;;;;;;18.57;12.30;;;;;;;;;;5063943;28;20844;-70
2021/01/22 05:40:19;;;;;;;19.57;13.20;;;;;;;;;;5076099;28;20184;-70
2021/01/22 05:42:55;;;;;;;19.47;13.07;;;;;;;;;;5083126;28;20651;-70
2021/01/22 05:45:43;;;;;;;17.97;12.90;;;;;;;;;;5069728;28;20303;-70
2021/01/22 05:48:26;;;;;;;21.03;12.87;;;;;;;;;;5071469;28;20185;-70
2021/01/22 05:50:55;;;;;;;20.00;13.10;;;;;;;;;;5071123;28;20211;-70
2021/01/22 05:53:21;;;;;;;18.17;11.37;;;;;;;;;;5080386;28;20673;-70
2021/01/22 05:56:06;;;;;;;22.20;13.47;;;;;;;;;;5060563;28;20192;-70
2021/01/22 05:58:31;;;;;;;18.10;13.43;;;;;;;;;;5065895;28;20673;-70
2021/01/22 06:01:13;;;;;;;21.73;12.90;;;;;;;;;;5071134;28;20618;-70
2021/01/22 06:03:49;;;;;;;18.03;12.60;;;;;;;;;;5082989;28;21507;-70
2021/01/22 06:06:16;;;;;;;21.37;14.20;;;;;;;;;;5070634;28;20219;-70
2021/01/22 06:08:51;;;;;;;19.43;13.23;;;;;;;;;;5078285;28;20321;-70
2021/01/22 06:11:17;;;;;;;20.97;13.17;;;;;;;;;;5068035;28;20212;-70
2021/01/22 06:13:48;;;;;;;19.20;13.30;;;;;;;;;;5082006;28;20279;-70
2021/01/22 06:16:16;;;;;;;20.77;13.87;;;;;;;;;;5057393;28;20285;-70
2021/01/22 06:18:46;;;;;;;20.00;12.93;;;;;;;;;;5078651;28;20263;-70
2021/01/22 06:21:44;;;;;;;20.43;13.17;;;;;;;;;;5066928;28;20180;-70
2021/01/22 06:24:09;;;;;;;19.27;12.80;;;;;;;;;;5063973;28;20199;-71
2021/01/22 06:26:36;;;;;;;25.37;13.77;;;;;;;;;;5069502;28;20218;-70
2021/01/22 06:29:04;;;;;;;17.57;11.47;;;;;;;;;;5081936;28;20195;-71
2021/01/22 06:31:30;;;;;;;24.07;13.57;;;;;;;;;;5067916;28;20671;-70
2021/01/22 06:33:56;;;;;;;18.40;12.13;;;;;;;;;;5080107;28;20227;-70
2021/01/22 06:36:22;;;;;;;17.67;13.10;;;;;;;;;;5077683;28;20219;-69
2021/01/22 06:38:50;;;;;;;19.13;12.67;;;;;;;;;;5071068;28;20224;-70
2021/01/22 06:41:15;;;;;;;20.03;13.00;;;;;;;;;;5073654;28;20187;-70
2021/01/22 06:43:41;;;;;;;23.17;12.57;;;;;;;;;;5048684;28;20227;-72
2021/01/22 06:46:17;;;;;;;25.70;14.03;;;;;;;;;;5080858;28;20310;-71
2021/01/22 06:48:52;;;;;;;21.00;13.63;;;;;;;;;;5069281;28;20187;-72
2021/01/22 06:51:18;;;;;;;24.10;14.43;;;;;;;;;;5056406;28;20553;-72
2021/01/22 06:54:09;;;;;;;24.30;15.30;;;;;;;;;;5056343;28;20282;-70
2021/01/22 06:56:37;;;;;;;22.47;14.33;;;;;;;;;;5063014;28;20185;-70
2021/01/22 06:59:29;;;;;;;22.57;14.07;;;;;;;;;;5076605;28;20242;-70
2021/01/22 07:01:55;;;;;;;23.07;15.00;;;;;;;;;;5077868;28;20199;-72
2021/01/22 07:04:33;;;;;;;26.00;16.40;;;;;;;;;;5051279;28;20689;-70
2021/01/22 07:07:01;;;;;;;25.63;16.50;;;;;;;;;;5064701;28;20225;-70
2021/01/22 07:09:42;;;;;;;31.33;17.83;;;;;;;;;;5068762;28;20682;-70
2021/01/22 07:12:15;;;;;;;33.23;16.93;;;;;;;;;;5080458;28;20226;-70
2021/01/22 07:14:50;;;;;;;33.30;18.80;;;;;;;;;;5053196;28;20199;-70
2021/01/22 07:17:19;;;;;;;31.07;18.97;;;;;;;;;;5078666;28;20198;-70
2021/01/22 07:20:04;;;;;;;29.43;19.60;;;;;;;;;;5070398;28;20753;-70
2021/01/22 07:22:31;;;;;;;33.20;21.20;;;;;;;;;;5076453;28;20192;-70
2021/01/22 07:24:59;;;;;;;38.03;21.57;;;;;;;;;;5067793;28;20663;-70
2021/01/22 07:27:39;;;;;;;36.57;22.57;;;;;;;;;;5075769;28;20761;-71
2021/01/22 07:30:17;;;;;;;38.27;24.63;;;;;;;;;;5050893;28;20199;-70
2021/01/22 07:32:50;;;;;;;41.80;24.53;;;;;;;;;;5075770;28;20275;-70
2021/01/22 07:35:19;;;;;;;43.87;25.23;;;;;;;;;;5042026;28;20286;-70
2021/01/22 07:37:46;;;;;;;48.20;26.20;;;;;;;;;;5075404;28;20202;-70
2021/01/22 07:40:12;;;;;;;49.80;26.63;;;;;;;;;;5066624;28;20344;-70
2021/01/22 07:42:39;;;;;;;46.27;26.27;;;;;;;;;;5073283;28;20656;-71
2021/01/22 07:45:16;;;;;;;46.43;26.60;;;;;;;;;;5060213;28;20184;-71
2021/01/22 07:47:43;;;;;;;50.43;28.77;;;;;;;;;;5063395;28;20199;-71
2021/01/22 07:50:10;;;;;;;50.47;29.33;;;;;;;;;;5079497;28;20207;-71
2021/01/22 07:52:46;;;;;;;50.83;28.63;;;;;;;;;;5067868;28;20198;-71
2021/01/22 07:55:16;;;;;;;51.10;29.37;;;;;;;;;;5081035;28;20184;-71
2021/01/22 07:57:42;;;;;;;48.67;28.80;;;;;;;;;;5069734;28;20252;-71
2021/01/22 08:00:10;;;;;;;54.27;29.80;;;;;;;;;;5062202;28;20203;-71
2021/01/22 08:02:35;;;;;;;46.53;28.73;;;;;;;;;;5064892;28;20703;-71
2021/01/22 08:05:03;;;;;;;52.43;29.70;;;;;;;;;;5073777;28;20219;-71
2021/01/22 08:07:40;;;;;;;51.70;28.60;;;;;;;;;;5062697;28;20206;-71
2021/01/22 08:10:08;;;;;;;54.50;29.47;;;;;;;;;;5082439;28;20195;-71
2021/01/22 08:12:34;;;;;;;44.73;27.80;;;;;;;;;;5064973;28;20199;-71
2021/01/22 08:15:13;;;;;;;52.53;29.53;;;;;;;;;;5080956;28;20643;-71
2021/01/22 08:17:39;;;;;;;51.73;27.93;;;;;;;;;;5063822;28;20712;-71
2021/01/22 08:20:08;;;;;;;48.90;28.40;;;;;;;;;;5076655;28;20196;-71
2021/01/22 08:22:33;;;;;;;52.60;28.73;;;;;;;;;;5064621;28;20237;-71
2021/01/22 08:25:00;;;;;;;46.57;26.47;;;;;;;;;;5074933;28;20203;-71
2021/01/22 08:27:25;;;;;;;48.67;27.13;;;;;;;;;;5071509;28;20252;-71
2021/01/22 08:29:51;;;;;;;48.90;26.70;;;;;;;;;;5067163;28;20824;-71
2021/01/22 08:32:18;;;;;;;49.73;27.43;;;;;;;;;;5072057;28;20772;-71
2021/01/22 08:34:43;;;;;;;47.70;26.77;;;;;;;;;;5062938;28;20446;-71
2021/01/22 08:37:09;;;;;;;49.63;26.70;;;;;;;;;;5074115;28;20635;-71
2021/01/22 08:40:00;;;;;;;55.53;26.93;;;;;;;;;;5064622;28;20307;-71
2021/01/22 08:42:27;;;;;;;41.80;24.07;;;;;;;;;;5075155;28;20194;-71
2021/01/22 08:44:54;;;;;;;39.37;24.33;;;;;;;;;;5045885;28;20675;-71
2021/01/22 08:47:19;;;;;;;42.00;24.27;;;;;;;;;;5073655;28;20188;-71
2021/01/22 08:49:52;;;;;;;39.27;21.97;;;;;;;;;;5067493;28;20196;-71
2021/01/22 08:52:17;;;;;;;39.60;24.37;;;;;;;;;;5074148;28;20216;-72
2021/01/22 08:54:43;;;;;;;41.60;23.90;;;;;;;;;;5067271;28;20538;-71
2021/01/22 08:57:09;;;;;;;44.23;24.60;;;;;;;;;;5075165;28;20191;-71
2021/01/22 08:59:52;;;;;;;34.93;21.73;;;;;;;;;;5065483;28;20173;-72
2021/01/22 09:02:36;;;;;;;41.87;22.67;;;;;;;;;;5067111;28;20341;-71
2021/01/22 09:05:06;;;;;;;35.47;20.40;;;;;;;;;;5068302;28;21002;-71
2021/01/22 09:07:32;;;;;;;34.70;21.13;;;;;;;;;;5074625;28;20303;-72
2021/01/22 09:09:58;;;;;;;40.27;20.97;;;;;;;;;;5065133;28;20186;-71
2021/01/22 09:12:33;;;;;;;36.80;21.53;;;;;;;;;;5066537;28;20188;-71
2021/01/22 09:15:02;;;;;;;33.23;21.27;;;;;;;;;;5078919;28;20187;-71
2021/01/22 09:17:35;;;;;;;32.33;20.30;;;;;;;;;;5069549;28;20202;-71
2021/01/22 09:20:13;;;;;;;38.47;21.80;;;;;;;;;;5082360;28;20179;-71
2021/01/22 09:22:38;;;;;;;35.40;20.07;;;;;;;;;;5067221;28;20553;-73
2021/01/22 09:25:10;;;;;;;32.13;19.10;;;;;;;;;;5082762;28;20196;-70
2021/01/22 09:27:37;;;;;;;35.30;19.77;;;;;;;;;;5065297;28;20276;-71
2021/01/22 09:30:05;;;;;;;33.50;20.03;;;;;;;;;;5080500;28;20376;-71
2021/01/22 09:32:30;;;;;;;32.57;20.27;;;;;;;;;;5066628;28;20199;-71
2021/01/22 09:34:56;;;;;;;32.10;20.07;;;;;;;;;;5078537;28;20176;-71
2021/01/22 09:37:21;;;;;;;35.80;19.87;;;;;;;;;;5071585;28;20287;-71
2021/01/22 09:39:47;;;;;;;29.20;18.97;;;;;;;;;;5079691;28;20235;-72
2021/01/22 09:42:12;;;;;;;31.13;19.00;;;;;;;;;;5068236;28;20192;-72
2021/01/22 09:44:37;;;;;;;32.73;19.17;;;;;;;;;;5075298;28;20195;-72
2021/01/22 09:47:03;;;;;;;34.83;18.87;;;;;;;;;;5069743;28;20191;-72
2021/01/22 09:49:28;;;;;;;30.83;18.93;;;;;;;;;;5078167;28;20560;-70
2021/01/22 09:51:54;;;;;;;33.03;19.10;;;;;;;;;;5076644;28;20224;-70
2021/01/22 09:54:19;;;;;;;30.10;18.63;;;;;;;;;;5073598;28;20226;-70
2021/01/22 09:56:44;;;;;;;27.00;17.00;;;;;;;;;;5073420;28;20200;-70
2021/01/22 09:59:10;;;;;;;31.70;18.63;;;;;;;;;;5069232;28;20192;-70
2021/01/22 10:01:35;;;;;;;32.40;17.57;;;;;;;;;;5075224;28;20200;-71
2021/01/22 10:04:01;;;;;;;27.40;17.47;;;;;;;;;;5069204;28;20271;-71
2021/01/22 10:06:27;;;;;;;28.13;17.20;;;;;;;;;;5074801;28;20235;-71
2021/01/22 10:08:52;;;;;;;26.13;15.57;;;;;;;;;;5072288;28;20987;-70
2021/01/22 10:11:18;;;;;;;29.57;16.67;;;;;;;;;;5079689;28;20211;-71
2021/01/22 10:13:43;;;;;;;27.00;15.77;;;;;;;;;;5067965;28;20175;-71
2021/01/22 10:16:08;;;;;;;22.57;14.77;;;;;;;;;;5077718;28;20200;-70
2021/01/22 10:18:34;;;;;;;25.50;14.63;;;;;;;;;;5079705;28;20267;-69
2021/01/22 10:20:59;;;;;;;23.93;14.20;;;;;;;;;;5068468;28;20243;-70
2021/01/22 10:23:24;;;;;;;28.47;15.20;;;;;;;;;;5081661;28;20183;-70
2021/01/22 10:25:50;;;;;;;27.07;15.17;;;;;;;;;;5067179;28;20248;-70
2021/01/22 10:28:15;;;;;;;24.33;15.13;;;;;;;;;;5079787;28;20655;-70
2021/01/22 10:30:40;;;;;;;26.77;14.53;;;;;;;;;;5072993;28;20211;-70
2021/01/22 10:33:06;;;;;;;26.90;13.87;;;;;;;;;;5078555;28;20192;-70
2021/01/22 10:35:31;;;;;;;24.33;13.77;;;;;;;;;;5053582;28;20195;-70
2021/01/22 10:37:56;;;;;;;23.23;13.70;;;;;;;;;;5076372;28;20236;-70
2021/01/22 10:40:22;;;;;;;21.03;12.70;;;;;;;;;;5071326;28;20192;-70
2021/01/22 10:42:47;;;;;;;20.87;12.57;;;;;;;;;;5075604;28;20210;-71
2021/01/22 10:45:13;;;;;;;18.73;12.13;;;;;;;;;;5076781;28;20194;-71
2021/01/22 10:47:38;;;;;;;19.43;11.97;;;;;;;;;;5056627;28;20684;-71
2021/01/22 10:50:04;;;;;;;20.60;11.77;;;;;;;;;;5080158;28;20850;-70
2021/01/22 10:52:30;;;;;;;21.60;10.60;;;;;;;;;;5067925;28;20192;-69
2021/01/22 10:54:55;;;;;;;18.87;11.13;;;;;;;;;;5078870;28;20195;-70
2021/01/22 10:57:20;;;;;;;21.77;11.40;;;;;;;;;;5065324;28;20199;-69
2021/01/22 10:59:46;;;;;;;20.50;11.90;;;;;;;;;;5072317;28;20199;-69
2021/01/22 11:02:11;;;;;;;18.17;10.50;;;;;;;;;;5074045;28;20239;-70
2021/01/22 11:04:39;;;;;;;22.43;11.10;;;;;;;;;;5081987;28;20196;-70
2021/01/22 11:07:04;;;;;;;23.43;11.53;;;;;;;;;;5056144;28;20243;-70
2021/01/22 11:09:30;;;;;;;19.67;10.80;;;;;;;;;;5084926;28;20184;-70
2021/01/22 11:11:56;;;;;;;22.73;11.00;;;;;;;;;;5075342;28;22595;-70
2021/01/22 11:14:21;;;;;;;22.17;10.17;;;;;;;;;;5084099;28;20662;-70
2021/01/22 11:16:46;;;;;;;20.33;10.17;;;;;;;;;;5080342;28;20271;-70
2021/01/22 11:19:12;;;;;;;20.17;10.03;;;;;;;;;;5080732;28;20581;-70
2021/01/22 11:21:37;;;;;;;20.13;9.97;;;;;;;;;;5084910;28;20241;-70
2021/01/22 11:24:03;;;;;;;21.97;9.63;;;;;;;;;;5077676;28;20234;-70
2021/01/22 11:26:29;;;;;;;19.53;10.53;;;;;;;;;;5067936;28;20195;-70
2021/01/22 11:28:54;;;;;;;22.10;10.43;;;;;;;;;;5071669;28;20192;-70
2021/01/22 11:31:19;;;;;;;21.03;9.60;;;;;;;;;;5082569;28;20268;-71
2021/01/22 11:33:45;;;;;;;21.43;9.23;;;;;;;;;;5050469;28;20187;-70
2021/01/22 11:36:11;;;;;;;16.97;8.67;;;;;;;;;;5064497;28;20253;-70
2021/01/22 11:38:36;;;;;;;16.53;9.20;;;;;;;;;;5072129;28;20656;-71
2021/01/22 11:41:01;;;;;;;16.13;8.83;;;;;;;;;;5083081;28;20192;-70
2021/01/22 11:43:27;;;;;;;14.07;8.27;;;;;;;;;;5075339;28;20269;-71
2021/01/22 11:45:52;;;;;;;17.43;8.63;;;;;;;;;;5084387;28;20320;-70
2021/01/22 11:48:17;;;;;;;17.60;9.03;;;;;;;;;;5084625;28;20552;-70
2021/01/22 11:50:43;;;;;;;18.00;8.70;;;;;;;;;;5071338;28;20208;-70
2021/01/22 11:53:08;;;;;;;19.93;8.07;;;;;;;;;;5085614;28;20188;-71
2021/01/22 11:55:33;;;;;;;14.07;7.60;;;;;;;;;;5074041;28;20192;-71
2021/01/22 11:57:58;;;;;;;19.50;7.63;;;;;;;;;;5086574;28;20214;-70
2021/01/22 12:00:24;;;;;;;14.47;7.50;;;;;;;;;;5074505;28;20276;-70
2021/01/22 12:02:49;;;;;;;13.60;7.07;;;;;;;;;;5064688;28;20216;-70
2021/01/22 12:05:15;;;;;;;16.30;7.57;;;;;;;;;;5069036;28;20224;-70
2021/01/22 12:07:40;;;;;;;17.00;7.13;;;;;;;;;;5065140;28;20286;-70
2021/01/22 12:10:06;;;;;;;15.40;7.77;;;;;;;;;;5075807;28;20220;-70
2021/01/22 12:12:31;;;;;;;14.30;7.00;;;;;;;;;;5086592;28;20188;-70
2021/01/22 12:14:57;;;;;;;17.90;7.10;;;;;;;;;;5075065;28;20195;-70
2021/01/22 12:17:22;;;;;;;17.70;5.87;;;;;;;;;;5086945;28;20180;-70
2021/01/22 12:19:47;;;;;;;15.83;6.97;;;;;;;;;;5082373;28;20229;-70
2021/01/22 12:22:13;;;;;;;12.30;6.33;;;;;;;;;;5076749;28;20496;-71
2021/01/22 12:24:38;;;;;;;16.87;6.97;;;;;;;;;;5048714;28;20529;-71
2021/01/22 12:27:04;;;;;;;17.13;6.30;;;;;;;;;;5073261;28;20275;-70
2021/01/22 12:29:29;;;;;;;13.53;5.63;;;;;;;;;;5063586;28;20191;-71
2021/01/22 12:31:55;;;;;;;13.60;5.17;;;;;;;;;;5063226;28;20219;-71
2021/01/22 12:34:20;;;;;;;17.83;5.90;;;;;;;;;;5076621;28;20290;-70
2021/01/22 12:36:46;;;;;;;10.57;4.83;;;;;;;;;;5064928;28;20552;-70
2021/01/22 12:39:11;;;;;;;10.63;5.70;;;;;;;;;;5057625;28;20221;-70
2021/01/22 12:41:37;;;;;;;9.50;5.07;;;;;;;;;;5053516;28;20184;-70
2021/01/22 12:44:02;;;;;;;16.23;6.00;;;;;;;;;;5073885;28;20249;-70
2021/01/22 12:46:28;;;;;;;13.13;4.80;;;;;;;;;;5073939;28;20176;-70
2021/01/22 12:48:53;;;;;;;12.37;4.87;;;;;;;;;;5062766;28;21239;-71
2021/01/22 12:51:19;;;;;;;12.93;4.70;;;;;;;;;;5076077;28;20215;-71
2021/01/22 12:53:45;;;;;;;11.07;4.23;;;;;;;;;;5066679;28;20199;-71
2021/01/22 12:56:10;;;;;;;11.07;4.87;;;;;;;;;;5078429;28;20202;-71
2021/01/22 12:58:35;;;;;;;14.73;5.20;;;;;;;;;;5068321;28;20658;-70
2021/01/22 13:01:01;;;;;;;13.80;4.60;;;;;;;;;;5078419;28;20776;-70
2021/01/22 13:03:26;;;;;;;16.50;4.90;;;;;;;;;;5076471;28;20180;-70
2021/01/22 13:05:52;;;;;;;14.47;4.63;;;;;;;;;;5087905;28;20285;-71
2021/01/22 13:08:17;;;;;;;11.63;3.77;;;;;;;;;;5078463;28;20316;-71
2021/01/22 13:10:42;;;;;;;12.27;3.90;;;;;;;;;;5086905;28;20204;-71
2021/01/22 13:13:08;;;;;;;9.93;4.13;;;;;;;;;;5077013;28;20519;-71
2021/01/22 13:15:33;;;;;;;10.20;3.77;;;;;;;;;;5087824;28;20199;-71
2021/01/22 13:17:59;;;;;;;11.23;3.70;;;;;;;;;;5087406;28;20187;-71
2021/01/22 13:20:24;;;;;;;13.07;4.47;;;;;;;;;;5080754;28;20176;-71
2021/01/22 13:22:49;;;;;;;9.67;4.33;;;;;;;;;;5087234;28;20586;-70
2021/01/22 13:25:15;;;;;;;12.83;3.73;;;;;;;;;;5079851;28;20537;-71
2021/01/22 13:27:40;;;;;;;13.57;3.37;;;;;;;;;;5087303;28;20655;-71
2021/01/22 13:30:06;;;;;;;12.70;3.00;;;;;;;;;;5078376;28;20555;-71
2021/01/22 13:32:32;;;;;;;10.23;3.63;;;;;;;;;;5087208;28;20581;-71
2021/01/22 13:34:58;;;;;;;9.80;2.73;;;;;;;;;;5078883;28;20192;-71
2021/01/22 13:37:24;;;;;;;12.20;3.53;;;;;;;;;;5087819;28;20271;-71
2021/01/22 13:39:49;;;;;;;15.57;3.53;;;;;;;;;;5081007;28;20302;-71
2021/01/22 13:42:15;;;;;;;9.63;3.20;;;;;;;;;;5087064;28;20184;-70
2021/01/22 13:44:40;;;;;;;8.57;2.30;;;;;;;;;;5080124;28;20184;-71
2021/01/22 13:47:05;;;;;;;12.20;2.77;;;;;;;;;;5089621;28;20184;-71
2021/01/22 13:49:31;;;;;;;10.77;2.57;;;;;;;;;;5087450;28;20180;-71
2021/01/22 13:51:56;;;;;;;11.27;2.40;;;;;;;;;;5078261;28;20565;-71
2021/01/22 13:54:21;;;;;;;6.53;1.80;;;;;;;;;;5087324;28;20196;-71
2021/01/22 13:56:47;;;;;;;9.57;2.47;;;;;;;;;;5078601;28;20188;-71
2021/01/22 13:59:13;;;;;;;6.87;2.23;;;;;;;;;;5087601;28;20196;-71
2021/01/22 14:01:39;;;;;;;12.03;2.43;;;;;;;;;;5078286;28;20242;-71
2021/01/22 14:04:05;;;;;;;8.83;2.50;;;;;;;;;;5086799;28;21812;-71
2021/01/22 14:06:30;;;;;;;9.00;2.30;;;;;;;;;;5074608;28;20196;-71
2021/01/22 14:08:56;;;;;;;12.27;2.83;;;;;;;;;;5086463;28;20188;-71
2021/01/22 14:11:21;;;;;;;9.53;2.90;;;;;;;;;;5077149;28;20212;-71
2021/01/22 14:13:47;;;;;;;11.90;2.77;;;;;;;;;;5086194;28;20185;-72
2021/01/22 14:16:12;;;;;;;9.07;2.33;;;;;;;;;;5085795;28;20221;-70
2021/01/22 14:18:37;;;;;;;13.77;3.33;;;;;;;;;;5078380;28;20184;-70
2021/01/22 14:21:03;;;;;;;10.73;2.53;;;;;;;;;;5086251;28;20179;-71
2021/01/22 14:23:29;;;;;;;9.63;2.70;;;;;;;;;;5078419;28;20648;-71
2021/01/22 14:25:54;;;;;;;11.60;3.03;;;;;;;;;;5087635;28;20186;-71
2021/01/22 14:28:19;;;;;;;8.67;2.60;;;;;;;;;;5074927;28;20233;-71
2021/01/22 14:30:45;;;;;;;10.63;2.60;;;;;;;;;;5084647;28;20204;-71